createdAt,value
2019-03-29T00:01:58.245Z,98.90
2019-03-29T00:04:41.485Z,98.90
2019-03-29T00:07:17.195Z,98.80
2019-03-29T00:09:58.824Z,98.80
2019-03-29T00:12:40.985Z,98.80
2019-03-29T00:15:16.816Z,98.70
2019-03-29T00:17:59.182Z,98.80
2019-03-29T00:20:41.407Z,98.80
2019-03-29T00:23:10.069Z,98.80
2019-03-29T00:28:20.898Z,98.90
2019-03-29T00:31:03.271Z,99.10
2019-03-29T00:33:45.602Z,99.10
2019-03-29T00:36:13.413Z,99.10
2019-03-29T00:41:22.570Z,99.10
2019-03-29T00:43:58.238Z,99.20
2019-03-29T00:49:07.267Z,99.10
2019-03-29T00:51:51.062Z,99.20
2019-03-29T00:54:28.001Z,99.10
2019-03-29T00:57:10.152Z,99.10
2019-03-29T00:59:52.279Z,99.20
2019-03-29T01:02:21.140Z,99.20
2019-03-29T01:05:04.044Z,99.10
2019-03-29T01:08:06.689Z,99.00
2019-03-29T01:10:38.538Z,99.00
2019-03-29T01:13:13.994Z,99.00
2019-03-29T01:15:57.098Z,99.00
2019-03-29T01:18:32.857Z,99.10
2019-03-29T01:21:15.396Z,99.20
2019-03-29T01:23:51.265Z,99.10
2019-03-29T01:26:33.862Z,99.10
2019-03-29T01:29:10.343Z,98.90
2019-03-29T01:31:52.909Z,99.00
2019-03-29T01:34:28.567Z,99.10
2019-03-29T01:37:10.535Z,99.10
2019-03-29T01:42:20.631Z,99.10
2019-03-29T01:50:05.244Z,99.20
2019-03-29T01:52:41.816Z,99.30
2019-03-29T01:55:09.632Z,99.30
2019-03-29T01:57:52.309Z,99.20
2019-03-29T02:00:46.360Z,99.20
2019-03-29T02:03:33.983Z,99.40
2019-03-29T02:06:10.291Z,99.20
2019-03-29T02:11:20.990Z,99.30
2019-03-29T02:14:09.361Z,99.20
2019-03-29T02:16:51.249Z,99.20
2019-03-29T02:19:19.973Z,99.30
2019-03-29T02:21:55.591Z,99.40
2019-03-29T02:24:31.233Z,99.30
2019-03-29T02:27:13.511Z,99.30
2019-03-29T02:29:55.890Z,99.30
2019-03-29T02:32:24.841Z,99.30
2019-03-29T02:35:07.351Z,99.30
2019-03-29T02:37:43.093Z,99.40
2019-03-29T02:42:52.522Z,99.30
2019-03-29T02:45:29.562Z,99.30
2019-03-29T02:48:12.656Z,99.50
2019-03-29T02:50:48.594Z,99.60
2019-03-29T02:53:30.468Z,99.60
2019-03-29T02:56:06.507Z,99.90
2019-03-29T02:58:34.329Z,99.80
2019-03-29T03:01:16.837Z,99.80
2019-03-29T03:03:52.251Z,99.90
2019-03-29T03:06:34.777Z,99.80
2019-03-29T03:09:18.278Z,99.90
2019-03-29T03:11:54.140Z,99.90
2019-03-29T03:14:36.648Z,99.90
2019-03-29T03:17:12.491Z,99.90
2019-03-29T03:19:55.679Z,99.90
2019-03-29T03:22:31.427Z,99.90
2019-03-29T03:25:14.427Z,99.70
2019-03-29T03:27:56.474Z,99.80
2019-03-29T03:30:39.262Z,99.80
2019-03-29T03:33:21.835Z,99.90
2019-03-29T03:35:50.488Z,99.90
2019-03-29T03:38:33.337Z,99.90
2019-03-29T03:41:22.400Z,99.90
2019-03-29T03:44:04.712Z,99.90
2019-03-29T03:46:41.127Z,99.90
2019-03-29T03:49:23.964Z,99.90
2019-03-29T03:52:13.332Z,99.90
2019-03-29T03:59:50.687Z,99.90
2019-03-29T04:02:26.639Z,99.90
2019-03-29T04:05:10.047Z,99.90
2019-03-29T04:07:52.317Z,99.90
2019-03-29T04:10:34.602Z,99.90
2019-03-29T04:15:39.054Z,99.90
2019-03-29T04:18:16.004Z,99.90
2019-03-29T04:20:58.977Z,99.90
2019-03-29T04:23:41.021Z,99.90
2019-03-29T04:26:09.750Z,99.90
2019-03-29T04:28:57.005Z,99.90
2019-03-29T04:31:22.585Z,99.90
2019-03-29T04:34:05.027Z,99.90
2019-03-29T04:36:41.398Z,99.90
2019-03-29T04:39:24.065Z,99.90
2019-03-29T04:41:59.974Z,99.90
2019-03-29T04:44:42.639Z,99.90
2019-03-29T04:47:19.043Z,99.90
2019-03-29T04:50:01.728Z,99.90
2019-03-29T04:52:38.195Z,99.90
2019-03-29T04:55:21.628Z,99.90
2019-03-29T04:57:57.196Z,99.90
2019-03-29T05:00:39.780Z,99.90
2019-03-29T05:03:16.289Z,99.90
2019-03-29T05:05:59.436Z,99.90
2019-03-29T05:08:35.731Z,99.90
2019-03-29T05:11:17.710Z,99.90
2019-03-29T05:14:00.712Z,99.90
2019-03-29T05:16:43.084Z,99.90
2019-03-29T05:19:26.037Z,99.90
2019-03-29T05:22:00.527Z,99.90
2019-03-29T05:24:43.046Z,99.90
2019-03-29T05:27:11.699Z,99.90
2019-03-29T05:29:54.476Z,99.90
2019-03-29T05:35:05.028Z,99.90
2019-03-29T05:37:41.078Z,99.90
2019-03-29T05:40:34.355Z,99.90
2019-03-29T05:43:00.508Z,99.90
2019-03-29T05:45:43.294Z,99.90
2019-03-29T05:48:26.244Z,99.90
2019-03-29T05:53:34.574Z,99.90
2019-03-29T05:56:17.726Z,99.90
2019-03-29T05:59:00.544Z,99.90
2019-03-29T06:01:43.620Z,99.90
2019-03-29T06:04:19.256Z,99.90
2019-03-29T06:07:02.434Z,99.90
2019-03-29T06:09:45.029Z,99.90
2019-03-29T06:12:20.910Z,99.90
2019-03-29T06:15:03.022Z,99.90
2019-03-29T06:20:13.181Z,99.90
2019-03-29T06:22:55.136Z,99.90
2019-03-29T06:25:37.897Z,99.90
2019-03-29T06:35:45.635Z,99.90
2019-03-29T06:38:14.996Z,99.90
2019-03-29T06:43:25.782Z,99.90
2019-03-29T06:46:14.769Z,99.90
2019-03-29T06:49:03.953Z,99.90
2019-03-29T06:51:39.404Z,99.90
2019-03-29T06:54:28.066Z,99.90
2019-03-29T06:57:03.940Z,99.90
2019-03-29T06:59:32.609Z,99.90
2019-03-29T07:02:15.089Z,99.90
2019-03-29T07:05:03.679Z,99.80
2019-03-29T07:07:39.399Z,99.50
2019-03-29T07:10:21.875Z,99.40
2019-03-29T07:12:57.504Z,99.10
2019-03-29T07:15:39.395Z,98.80
2019-03-29T07:18:14.978Z,98.50
2019-03-29T07:23:26.093Z,98.00
2019-03-29T07:26:02.207Z,97.80
2019-03-29T07:28:45.054Z,97.50
2019-03-29T07:31:21.493Z,97.20
2019-03-29T07:34:04.067Z,97.40
2019-03-29T07:36:40.434Z,97.30
2019-03-29T07:39:23.763Z,97.40
2019-03-29T07:41:59.186Z,97.20
2019-03-29T07:44:41.628Z,97.00
2019-03-29T07:47:17.404Z,97.20
2019-03-29T07:49:59.489Z,97.10
2019-03-29T07:52:41.739Z,97.00
2019-03-29T07:55:24.438Z,96.80
2019-03-29T07:58:00.086Z,96.70
2019-03-29T08:00:43.039Z,96.60
2019-03-29T08:03:26.152Z,96.20
2019-03-29T08:05:53.972Z,96.20
2019-03-29T08:08:32.205Z,95.80
2019-03-29T08:11:25.585Z,95.80
2019-03-29T08:13:50.931Z,95.70
2019-03-29T08:16:33.493Z,95.60
2019-03-29T08:19:09.823Z,95.70
2019-03-29T08:21:51.655Z,95.60
2019-03-29T08:24:34.745Z,95.10
2019-03-29T08:32:13.720Z,94.20
2019-03-29T08:34:56.088Z,93.90
2019-03-29T08:37:23.882Z,93.20
2019-03-29T08:40:06.747Z,92.70
2019-03-29T08:42:55.800Z,92.60
2019-03-29T08:45:31.620Z,92.80
2019-03-29T08:53:09.695Z,92.00
2019-03-29T08:55:58.593Z,92.70
2019-03-29T08:58:41.280Z,92.70
2019-03-29T09:01:19.300Z,91.90
2019-03-29T09:04:05.606Z,91.70
2019-03-29T09:06:53.210Z,91.50
2019-03-29T09:09:31.255Z,91.50
2019-03-29T09:12:14.170Z,91.00
2019-03-29T09:14:50.840Z,90.70
2019-03-29T09:17:27.385Z,90.60
2019-03-29T09:20:10.715Z,90.70
2019-03-29T09:22:46.191Z,90.50
2019-03-29T09:25:28.881Z,90.20
2019-03-29T09:28:11.729Z,90.60
2019-03-29T09:30:47.277Z,90.10
2019-03-29T09:33:29.401Z,90.00
2019-03-29T09:38:38.143Z,88.90
2019-03-29T09:41:21.357Z,89.30
2019-03-29T09:43:57.583Z,90.00
2019-03-29T09:46:40.854Z,88.80
2019-03-29T09:49:16.852Z,88.70
2019-03-29T09:51:59.757Z,88.70
2019-03-29T09:54:42.535Z,87.70
2019-03-29T10:02:20.624Z,87.70
2019-03-29T10:05:09.778Z,88.00
2019-03-29T10:07:51.928Z,88.10
2019-03-29T10:10:28.428Z,88.10
2019-03-29T10:13:11.807Z,88.20
2019-03-29T10:15:47.298Z,88.70
2019-03-29T10:18:29.174Z,88.00
2019-03-29T10:21:05.153Z,87.80
2019-03-29T10:23:47.069Z,87.60
2019-03-29T10:26:15.760Z,88.60
2019-03-29T10:28:58.308Z,88.10
2019-03-29T10:31:40.418Z,87.30
2019-03-29T10:34:23.126Z,87.40
2019-03-29T10:36:50.947Z,88.20
2019-03-29T10:39:35.590Z,88.30
2019-03-29T10:42:10.493Z,88.30
2019-03-29T10:47:20.278Z,87.30
2019-03-29T10:49:56.663Z,87.90
2019-03-29T10:52:38.802Z,87.90
2019-03-29T10:55:15.199Z,88.00
2019-03-29T10:57:58.309Z,88.40
2019-03-29T11:00:45.481Z,87.30
2019-03-29T11:03:28.874Z,88.10
2019-03-29T11:06:25.311Z,88.30
2019-03-29T11:09:01.147Z,87.90
2019-03-29T11:11:43.660Z,88.10
2019-03-29T11:14:19.970Z,88.40
2019-03-29T11:17:03.064Z,88.70
2019-03-29T11:19:46.092Z,87.80
2019-03-29T11:22:21.749Z,88.00
2019-03-29T11:25:04.499Z,88.50
2019-03-29T11:27:47.516Z,88.80
2019-03-29T11:30:23.333Z,88.50
2019-03-29T11:33:05.829Z,88.60
2019-03-29T11:35:48.337Z,89.00
2019-03-29T11:38:31.055Z,88.90
2019-03-29T11:41:06.690Z,88.70
2019-03-29T11:43:49.094Z,89.20
2019-03-29T11:46:24.660Z,89.20
2019-03-29T11:49:07.829Z,90.10
2019-03-29T11:51:43.304Z,89.50
2019-03-29T11:54:26.223Z,89.20
2019-03-29T11:57:02.508Z,89.10
2019-03-29T11:59:45.694Z,89.30
2019-03-29T12:02:31.600Z,89.30
2019-03-29T12:04:59.076Z,88.90
2019-03-29T12:07:41.697Z,89.10
2019-03-29T12:10:30.788Z,89.10
2019-03-29T12:13:21.724Z,89.10
2019-03-29T12:15:57.521Z,88.80
2019-03-29T12:18:40.645Z,88.60
2019-03-29T12:21:23.886Z,89.40
2019-03-29T12:23:52.576Z,89.50
2019-03-29T12:26:34.536Z,89.30
2019-03-29T12:29:17.314Z,89.80
2019-03-29T12:31:53.823Z,89.30
2019-03-29T12:39:34.058Z,88.50
2019-03-29T12:42:10.134Z,89.00
2019-03-29T12:44:52.728Z,88.90
2019-03-29T12:47:29.069Z,88.30
2019-03-29T12:50:15.068Z,89.10
2019-03-29T12:52:57.581Z,89.20
2019-03-29T12:55:33.239Z,89.20
2019-03-29T12:58:16.419Z,89.50
2019-03-29T13:00:59.149Z,89.50
2019-03-29T13:03:35.433Z,89.90
2019-03-29T13:06:17.613Z,90.00
2019-03-29T13:08:54.251Z,90.20
2019-03-29T13:11:37.068Z,89.00
2019-03-29T13:14:26.192Z,88.60
2019-03-29T13:17:03.034Z,89.10
2019-03-29T13:22:13.346Z,90.10
2019-03-29T13:25:02.340Z,89.10
2019-03-29T13:27:45.161Z,89.70
2019-03-29T13:30:22.707Z,89.60
2019-03-29T13:33:05.480Z,90.00
2019-03-29T13:35:44.424Z,90.00
2019-03-29T13:43:24.285Z,90.00
2019-03-29T13:45:59.921Z,89.90
2019-03-29T13:48:42.692Z,89.90
2019-03-29T13:51:25.490Z,90.20
2019-03-29T13:53:53.325Z,90.20
2019-03-29T13:56:34.990Z,90.60
2019-03-29T13:59:10.644Z,90.80
2019-03-29T14:01:38.487Z,90.40
2019-03-29T14:04:21.394Z,90.50
2019-03-29T14:07:04.579Z,90.40
2019-03-29T14:09:40.276Z,90.10
2019-03-29T14:12:22.957Z,90.10
2019-03-29T14:15:01.290Z,90.20
2019-03-29T14:17:43.243Z,90.10
2019-03-29T14:20:40.558Z,90.00
2019-03-29T14:23:16.309Z,90.30
2019-03-29T14:25:58.482Z,90.40
2019-03-29T14:28:35.081Z,90.30
2019-03-29T14:31:18.108Z,90.10
2019-03-29T14:33:54.456Z,90.30
2019-03-29T14:36:30.809Z,90.40
2019-03-29T14:39:07.129Z,90.50
2019-03-29T14:41:49.801Z,90.70
2019-03-29T14:44:26.013Z,90.60
2019-03-29T14:47:09.219Z,90.80
2019-03-29T14:49:44.771Z,91.00
2019-03-29T14:52:29.040Z,91.30
2019-03-29T14:55:07.963Z,91.70
2019-03-29T14:57:50.555Z,91.50
2019-03-29T15:00:50.598Z,91.50
2019-03-29T15:03:27.076Z,91.30
2019-03-29T15:06:09.952Z,91.40
2019-03-29T15:08:49.615Z,91.50
2019-03-29T15:11:30.468Z,91.60
2019-03-29T15:14:05.983Z,91.70
2019-03-29T15:16:47.843Z,91.70
2019-03-29T15:19:24.239Z,91.50
2019-03-29T15:22:07.020Z,91.60
2019-03-29T15:24:42.882Z,91.90
2019-03-29T15:32:17.328Z,92.00
2019-03-29T15:34:54.012Z,91.90
2019-03-29T15:37:36.228Z,92.00
2019-03-29T15:40:15.188Z,91.90
2019-03-29T15:43:04.390Z,91.60
2019-03-29T15:45:46.549Z,91.60
2019-03-29T15:48:22.925Z,91.90
2019-03-29T15:50:59.248Z,92.00
2019-03-29T15:53:27.070Z,91.90
2019-03-29T15:56:08.857Z,92.20
2019-03-29T15:58:45.261Z,92.10
2019-03-29T16:01:20.114Z,92.20
2019-03-29T16:03:56.584Z,92.10
2019-03-29T16:06:38.676Z,92.20
2019-03-29T16:09:21.527Z,92.10
2019-03-29T16:11:50.329Z,92.20
2019-03-29T16:14:33.394Z,92.20
2019-03-29T16:17:22.442Z,92.10
2019-03-29T16:19:58.300Z,92.20
2019-03-29T16:25:01.832Z,92.30
2019-03-29T16:27:37.752Z,92.40
2019-03-29T16:30:21.971Z,92.50
2019-03-29T16:32:58.275Z,92.80
2019-03-29T16:35:41.012Z,92.60
2019-03-29T16:38:17.587Z,92.60
2019-03-29T16:41:00.869Z,92.60
2019-03-29T16:43:37.176Z,92.60
2019-03-29T16:46:20.379Z,92.70
2019-03-29T16:48:56.437Z,92.90
2019-03-29T16:51:39.847Z,92.90
2019-03-29T16:54:29.086Z,92.90
2019-03-29T16:57:04.884Z,92.90
2019-03-29T16:59:47.588Z,92.90
2019-03-29T17:02:30.046Z,93.30
2019-03-29T17:05:05.895Z,93.00
2019-03-29T17:07:48.516Z,93.30
2019-03-29T17:10:24.673Z,93.40
2019-03-29T17:15:34.352Z,93.60
2019-03-29T17:18:28.714Z,93.60
2019-03-29T17:20:55.103Z,93.70
2019-03-29T17:23:38.012Z,93.80
2019-03-29T17:26:13.840Z,93.80
2019-03-29T17:28:55.987Z,93.90
2019-03-29T17:31:31.625Z,93.90
2019-03-29T17:34:14.288Z,94.00
2019-03-29T17:36:56.791Z,94.00
2019-03-29T17:42:07.523Z,94.00
2019-03-29T17:44:49.793Z,94.00
2019-03-29T17:47:32.828Z,94.20
2019-03-29T17:50:15.916Z,94.10
2019-03-29T17:52:51.955Z,94.20
2019-03-29T17:55:35.215Z,94.30
2019-03-29T17:58:11.799Z,94.30
2019-03-29T18:00:54.761Z,94.40
2019-03-29T18:03:37.228Z,94.40
2019-03-29T18:06:05.052Z,94.50
2019-03-29T18:11:14.525Z,94.50
2019-03-29T18:13:57.380Z,94.50
2019-03-29T18:16:39.880Z,94.70
2019-03-29T18:19:08.554Z,94.60
2019-03-29T18:21:50.774Z,94.80
2019-03-29T18:24:39.739Z,94.90
2019-03-29T18:27:16.359Z,94.90
2019-03-29T18:34:55.268Z,95.20
2019-03-29T18:37:44.104Z,95.20
2019-03-29T18:43:04.108Z,95.40
2019-03-29T18:45:41.767Z,95.40
2019-03-29T18:53:18.637Z,95.50
2019-03-29T18:55:55.013Z,95.60
2019-03-29T18:58:37.243Z,95.60
2019-03-29T19:01:13.516Z,95.70
2019-03-29T19:06:23.223Z,95.60
2019-03-29T19:08:59.665Z,95.60
2019-03-29T19:11:35.983Z,95.60
2019-03-29T19:14:12.123Z,95.60
2019-03-29T19:16:59.495Z,95.50
2019-03-29T19:19:31.079Z,95.60
2019-03-29T19:22:13.682Z,95.60
2019-03-29T19:24:49.346Z,95.60
2019-03-29T19:27:31.579Z,95.70
2019-03-29T19:30:19.017Z,95.70
2019-03-29T19:32:55.238Z,95.70
2019-03-29T19:35:38.596Z,95.70
2019-03-29T19:38:14.671Z,95.80
2019-03-29T19:40:57.608Z,95.90
2019-03-29T19:43:33.808Z,96.00
2019-03-29T19:46:16.856Z,95.80
2019-03-29T19:48:52.948Z,95.80
2019-03-29T19:51:36.503Z,95.70
2019-03-29T19:54:07.659Z,95.80
2019-03-29T19:56:50.199Z,95.90
2019-03-29T19:59:32.056Z,95.80
2019-03-29T20:02:14.984Z,95.90
2019-03-29T20:04:42.807Z,95.90
2019-03-29T20:07:20.385Z,95.90
2019-03-29T20:09:56.828Z,95.90
2019-03-29T20:12:25.638Z,95.90
2019-03-29T20:15:08.997Z,96.00
2019-03-29T20:17:51.199Z,95.90
2019-03-29T20:20:39.154Z,95.90
2019-03-29T20:23:06.991Z,95.90
2019-03-29T20:25:42.473Z,95.90
2019-03-29T20:28:18.653Z,96.00
2019-03-29T20:30:47.464Z,95.90
2019-03-29T20:35:58.075Z,95.90
2019-03-29T20:38:47.633Z,95.90
2019-03-29T20:41:23.507Z,95.80
2019-03-29T20:44:06.485Z,95.60
2019-03-29T20:46:42.569Z,95.60
2019-03-29T20:56:51.503Z,95.90
2019-03-29T21:04:27.992Z,95.80
2019-03-29T21:07:10.524Z,95.60
2019-03-29T21:09:46.097Z,95.70
2019-03-29T21:12:28.623Z,95.70
2019-03-29T21:15:05.963Z,95.70
2019-03-29T21:17:56.445Z,95.80
2019-03-29T21:20:27.339Z,95.80
2019-03-29T21:23:10.067Z,95.70
2019-03-29T21:25:46.146Z,95.70
2019-03-29T21:28:29.089Z,95.90
2019-03-29T21:31:05.474Z,95.90
2019-03-29T21:33:48.430Z,95.90
2019-03-29T21:36:24.914Z,95.90
2019-03-29T21:39:07.556Z,96.00
2019-03-29T21:41:50.311Z,96.00
2019-03-29T21:44:18.976Z,96.10
2019-03-29T21:47:01.383Z,96.20
2019-03-29T21:49:43.747Z,96.20
2019-03-29T21:52:19.274Z,96.30
2019-03-29T21:55:01.855Z,96.40
2019-03-29T21:57:37.314Z,96.40
2019-03-29T22:00:21.004Z,96.50
2019-03-29T22:02:56.739Z,96.60
2019-03-29T22:05:39.259Z,96.70
2019-03-29T22:08:22.357Z,96.80
2019-03-29T22:11:11.579Z,96.90
2019-03-29T22:13:53.595Z,96.90
2019-03-29T22:16:30.136Z,97.00
2019-03-29T22:19:12.856Z,97.00
2019-03-29T22:21:49.275Z,97.00
2019-03-29T22:24:32.839Z,97.20
2019-03-29T22:27:09.182Z,97.30
2019-03-29T22:29:51.624Z,97.30
2019-03-29T22:32:27.885Z,97.40
2019-03-29T22:37:41.895Z,97.60
2019-03-29T22:40:18.044Z,97.80
2019-03-29T22:43:00.887Z,97.90
2019-03-29T22:45:37.094Z,97.90
2019-03-29T22:48:19.394Z,98.10
2019-03-29T22:50:55.745Z,98.30
2019-03-29T22:53:38.452Z,98.50
2019-03-29T22:56:14.143Z,98.50
2019-03-29T23:01:25.713Z,98.70
2019-03-29T23:04:03.709Z,98.70
2019-03-29T23:11:39.849Z,98.90
2019-03-29T23:14:15.976Z,99.00
2019-03-29T23:16:50.498Z,99.00
2019-03-29T23:19:27.510Z,99.10
2019-03-29T23:22:10.727Z,99.10
2019-03-29T23:24:46.456Z,99.10
2019-03-29T23:27:28.936Z,99.20
2019-03-29T23:30:06.738Z,99.20
2019-03-29T23:32:49.168Z,99.20
2019-03-29T23:35:25.483Z,99.10
2019-03-29T23:38:08.227Z,99.10
2019-03-29T23:40:43.967Z,99.20
2019-03-29T23:43:26.444Z,99.20
2019-03-29T23:46:09.244Z,99.20
2019-03-29T23:48:36.277Z,99.20
2019-03-29T23:53:52.363Z,99.20
2019-03-29T23:56:20.173Z,99.10
2019-03-29T23:58:48.271Z,99.20
